sensor_id;sensor_type;location;lat;lon;timestamp;P1;durP1;ratioP1;P2;durP2;ratioP2
46597;SDS011;32318;48.858;8.252;2023-04-15T00:01:52;3.55;;;1.45;;
46597;SDS011;32318;48.858;8.252;2023-04-15T00:09:52;4.90;;;1.42;;
46597;SDS011;32318;48.858;8.252;2023-04-15T00:17:55;8.63;;;1.42;;
46597;SDS011;32318;48.858;8.252;2023-04-15T00:25:55;3.38;;;1.52;;
46597;SDS011;32318;48.858;8.252;2023-04-15T00:33:56;9.00;;;1.30;;
46597;SDS011;32318;48.858;8.252;2023-04-15T00:41:56;5.20;;;1.70;;
46597;SDS011;32318;48.858;8.252;2023-04-15T00:49:57;3.88;;;1.40;;
46597;SDS011;32318;48.858;8.252;2023-04-15T00:57:57;7.60;;;1.63;;
46597;SDS011;32318;48.858;8.252;2023-04-15T01:05:57;3.08;;;1.30;;
46597;SDS011;32318;48.858;8.252;2023-04-15T01:13:59;4.55;;;1.60;;
46597;SDS011;32318;48.858;8.252;2023-04-15T01:21:59;9.15;;;1.92;;
46597;SDS011;32318;48.858;8.252;2023-04-15T01:30:01;4.72;;;1.48;;
46597;SDS011;32318;48.858;8.252;2023-04-15T01:38:06;6.10;;;1.73;;
46597;SDS011;32318;48.858;8.252;2023-04-15T01:46:08;3.63;;;1.63;;
46597;SDS011;32318;48.858;8.252;2023-04-15T01:54:08;9.05;;;2.08;;
46597;SDS011;32318;48.858;8.252;2023-04-15T02:02:08;7.22;;;1.67;;
46597;SDS011;32318;48.858;8.252;2023-04-15T02:10:09;7.85;;;2.00;;
46597;SDS011;32318;48.858;8.252;2023-04-15T02:18:10;5.78;;;1.65;;
46597;SDS011;32318;48.858;8.252;2023-04-15T02:26:10;6.82;;;2.30;;
46597;SDS011;32318;48.858;8.252;2023-04-15T02:34:11;7.88;;;2.15;;
46597;SDS011;32318;48.858;8.252;2023-04-15T02:42:13;3.40;;;1.45;;
46597;SDS011;32318;48.858;8.252;2023-04-15T02:50:13;5.53;;;1.35;;
46597;SDS011;32318;48.858;8.252;2023-04-15T02:58:14;8.70;;;1.67;;
46597;SDS011;32318;48.858;8.252;2023-04-15T03:06:14;4.35;;;1.50;;
46597;SDS011;32318;48.858;8.252;2023-04-15T03:14:14;9.85;;;2.03;;
46597;SDS011;32318;48.858;8.252;2023-04-15T03:22:15;5.57;;;1.48;;
46597;SDS011;32318;48.858;8.252;2023-04-15T03:30:15;11.50;;;1.83;;
46597;SDS011;32318;48.858;8.252;2023-04-15T03:38:16;6.93;;;2.17;;
46597;SDS011;32318;48.858;8.252;2023-04-15T03:46:17;8.35;;;2.22;;
46597;SDS011;32318;48.858;8.252;2023-04-15T03:54:19;6.00;;;2.03;;
46597;SDS011;32318;48.858;8.252;2023-04-15T04:02:20;5.40;;;1.80;;
46597;SDS011;32318;48.858;8.252;2023-04-15T04:10:20;8.98;;;1.70;;
46597;SDS011;32318;48.858;8.252;2023-04-15T04:18:20;5.57;;;1.75;;
46597;SDS011;32318;48.858;8.252;2023-04-15T04:26:20;4.82;;;1.42;;
46597;SDS011;32318;48.858;8.252;2023-04-15T04:34:21;6.55;;;1.70;;
46597;SDS011;32318;48.858;8.252;2023-04-15T04:42:21;3.85;;;1.67;;
46597;SDS011;32318;48.858;8.252;2023-04-15T04:50:22;5.60;;;1.65;;
46597;SDS011;32318;48.858;8.252;2023-04-15T04:58:22;6.60;;;1.90;;
46597;SDS011;32318;48.858;8.252;2023-04-15T05:06:22;9.63;;;1.70;;
46597;SDS011;32318;48.858;8.252;2023-04-15T05:14:22;6.03;;;1.63;;
46597;SDS011;32318;48.858;8.252;2023-04-15T05:22:23;7.53;;;2.20;;
46597;SDS011;32318;48.858;8.252;2023-04-15T05:30:23;10.63;;;3.00;;
46597;SDS011;32318;48.858;8.252;2023-04-15T05:38:23;14.55;;;3.70;;
46597;SDS011;32318;48.858;8.252;2023-04-15T05:46:24;16.70;;;3.88;;
46597;SDS011;32318;48.858;8.252;2023-04-15T05:54:24;13.38;;;4.65;;
46597;SDS011;32318;48.858;8.252;2023-04-15T06:10:34;14.15;;;4.80;;
46597;SDS011;32318;48.858;8.252;2023-04-15T06:18:35;13.65;;;4.10;;
46597;SDS011;32318;48.858;8.252;2023-04-15T06:26:35;11.77;;;4.32;;
46597;SDS011;32318;48.858;8.252;2023-04-15T06:34:36;13.50;;;4.55;;
46597;SDS011;32318;48.858;8.252;2023-04-15T06:42:36;7.53;;;3.40;;
46597;SDS011;32318;48.858;8.252;2023-04-15T06:50:37;11.55;;;4.13;;
46597;SDS011;32318;48.858;8.252;2023-04-15T06:58:37;14.87;;;4.33;;
46597;SDS011;32318;48.858;8.252;2023-04-15T07:06:37;9.82;;;3.45;;
46597;SDS011;32318;48.858;8.252;2023-04-15T07:14:53;9.48;;;3.33;;
46597;SDS011;32318;48.858;8.252;2023-04-15T07:22:54;15.53;;;3.90;;
46597;SDS011;32318;48.858;8.252;2023-04-15T07:30:54;8.90;;;4.10;;
46597;SDS011;32318;48.858;8.252;2023-04-15T07:38:56;19.42;;;4.40;;
46597;SDS011;32318;48.858;8.252;2023-04-15T07:46:56;15.77;;;5.17;;
46597;SDS011;32318;48.858;8.252;2023-04-15T07:54:56;17.80;;;5.10;;
46597;SDS011;32318;48.858;8.252;2023-04-15T08:02:57;14.93;;;3.70;;
46597;SDS011;32318;48.858;8.252;2023-04-15T08:10:58;10.73;;;3.83;;
46597;SDS011;32318;48.858;8.252;2023-04-15T08:18:58;20.52;;;4.30;;
46597;SDS011;32318;48.858;8.252;2023-04-15T08:27:03;12.18;;;2.63;;
46597;SDS011;32318;48.858;8.252;2023-04-15T08:35:04;8.97;;;2.80;;
46597;SDS011;32318;48.858;8.252;2023-04-15T08:43:05;7.97;;;2.88;;
46597;SDS011;32318;48.858;8.252;2023-04-15T08:51:10;14.38;;;3.65;;
46597;SDS011;32318;48.858;8.252;2023-04-15T08:59:14;25.02;;;4.65;;
46597;SDS011;32318;48.858;8.252;2023-04-15T09:07:18;12.38;;;4.22;;
46597;SDS011;32318;48.858;8.252;2023-04-15T09:15:18;14.27;;;4.30;;
46597;SDS011;32318;48.858;8.252;2023-04-15T09:23:18;12.98;;;3.20;;
46597;SDS011;32318;48.858;8.252;2023-04-15T09:31:18;10.80;;;3.03;;
46597;SDS011;32318;48.858;8.252;2023-04-15T09:39:44;13.20;;;2.97;;
46597;SDS011;32318;48.858;8.252;2023-04-15T09:47:51;6.72;;;2.97;;
46597;SDS011;32318;48.858;8.252;2023-04-15T09:55:55;7.30;;;2.38;;
46597;SDS011;32318;48.858;8.252;2023-04-15T10:03:57;21.70;;;3.03;;
46597;SDS011;32318;48.858;8.252;2023-04-15T10:11:58;12.80;;;2.92;;
46597;SDS011;32318;48.858;8.252;2023-04-15T10:19:59;7.82;;;2.50;;
46597;SDS011;32318;48.858;8.252;2023-04-15T10:28:01;9.52;;;2.20;;
46597;SDS011;32318;48.858;8.252;2023-04-15T10:36:02;10.80;;;2.40;;
46597;SDS011;32318;48.858;8.252;2023-04-15T10:44:03;10.70;;;2.40;;
46597;SDS011;32318;48.858;8.252;2023-04-15T10:52:04;10.18;;;2.50;;
46597;SDS011;32318;48.858;8.252;2023-04-15T11:08:08;9.05;;;2.55;;
46597;SDS011;32318;48.858;8.252;2023-04-15T11:16:09;11.02;;;2.58;;
46597;SDS011;32318;48.858;8.252;2023-04-15T11:24:09;8.68;;;2.80;;
46597;SDS011;32318;48.858;8.252;2023-04-15T11:32:10;11.85;;;2.58;;
46597;SDS011;32318;48.858;8.252;2023-04-15T11:40:10;10.45;;;3.13;;
46597;SDS011;32318;48.858;8.252;2023-04-15T11:48:11;15.38;;;4.15;;
46597;SDS011;32318;48.858;8.252;2023-04-15T11:56:20;9.23;;;3.28;;
46597;SDS011;32318;48.858;8.252;2023-04-15T12:04:21;10.82;;;3.40;;
46597;SDS011;32318;48.858;8.252;2023-04-15T12:12:26;18.17;;;4.32;;
46597;SDS011;32318;48.858;8.252;2023-04-15T12:20:27;11.07;;;3.53;;
46597;SDS011;32318;48.858;8.252;2023-04-15T12:28:30;5.10;;;2.45;;
46597;SDS011;32318;48.858;8.252;2023-04-15T12:36:30;5.30;;;2.40;;
46597;SDS011;32318;48.858;8.252;2023-04-15T12:44:35;10.18;;;2.70;;
46597;SDS011;32318;48.858;8.252;2023-04-15T12:52:36;10.25;;;2.20;;
46597;SDS011;32318;48.858;8.252;2023-04-15T13:00:36;6.35;;;2.17;;
46597;SDS011;32318;48.858;8.252;2023-04-15T13:08:37;7.50;;;2.33;;
46597;SDS011;32318;48.858;8.252;2023-04-15T13:16:37;7.45;;;1.95;;
46597;SDS011;32318;48.858;8.252;2023-04-15T13:24:38;8.10;;;2.08;;
46597;SDS011;32318;48.858;8.252;2023-04-15T13:32:39;8.77;;;2.22;;
46597;SDS011;32318;48.858;8.252;2023-04-15T13:40:40;9.77;;;2.58;;
46597;SDS011;32318;48.858;8.252;2023-04-15T13:48:40;12.98;;;2.70;;
46597;SDS011;32318;48.858;8.252;2023-04-15T13:56:40;6.15;;;2.33;;
46597;SDS011;32318;48.858;8.252;2023-04-15T14:04:40;8.43;;;2.47;;
46597;SDS011;32318;48.858;8.252;2023-04-15T14:12:41;8.65;;;2.50;;
46597;SDS011;32318;48.858;8.252;2023-04-15T14:20:41;5.63;;;1.92;;
46597;SDS011;32318;48.858;8.252;2023-04-15T14:28:41;11.57;;;2.72;;
46597;SDS011;32318;48.858;8.252;2023-04-15T14:36:43;9.00;;;3.55;;
46597;SDS011;32318;48.858;8.252;2023-04-15T14:44:44;13.95;;;3.00;;
46597;SDS011;32318;48.858;8.252;2023-04-15T14:52:44;14.20;;;3.20;;
46597;SDS011;32318;48.858;8.252;2023-04-15T15:00:44;7.88;;;2.65;;
46597;SDS011;32318;48.858;8.252;2023-04-15T15:08:45;8.38;;;3.20;;
46597;SDS011;32318;48.858;8.252;2023-04-15T15:16:45;11.48;;;3.38;;
46597;SDS011;32318;48.858;8.252;2023-04-15T15:24:45;4.50;;;2.10;;
46597;SDS011;32318;48.858;8.252;2023-04-15T15:32:46;7.90;;;2.13;;
46597;SDS011;32318;48.858;8.252;2023-04-15T15:40:46;6.20;;;1.70;;
46597;SDS011;32318;48.858;8.252;2023-04-15T15:48:46;7.85;;;2.20;;
46597;SDS011;32318;48.858;8.252;2023-04-15T15:56:46;3.95;;;1.50;;
46597;SDS011;32318;48.858;8.252;2023-04-15T16:04:47;4.80;;;1.40;;
46597;SDS011;32318;48.858;8.252;2023-04-15T16:12:49;3.40;;;1.25;;
46597;SDS011;32318;48.858;8.252;2023-04-15T16:20:49;7.38;;;1.20;;
46597;SDS011;32318;48.858;8.252;2023-04-15T16:28:49;3.67;;;0.90;;
46597;SDS011;32318;48.858;8.252;2023-04-15T16:36:49;1.73;;;1.15;;
46597;SDS011;32318;48.858;8.252;2023-04-15T16:44:50;2.65;;;1.40;;
46597;SDS011;32318;48.858;8.252;2023-04-15T16:52:50;2.80;;;1.70;;
46597;SDS011;32318;48.858;8.252;2023-04-15T17:00:50;3.00;;;1.17;;
46597;SDS011;32318;48.858;8.252;2023-04-15T17:08:51;1.30;;;0.90;;
46597;SDS011;32318;48.858;8.252;2023-04-15T17:16:51;2.58;;;0.85;;
46597;SDS011;32318;48.858;8.252;2023-04-15T17:24:51;2.25;;;1.02;;
46597;SDS011;32318;48.858;8.252;2023-04-15T17:32:52;2.95;;;1.60;;
46597;SDS011;32318;48.858;8.252;2023-04-15T17:40:52;4.28;;;1.77;;
46597;SDS011;32318;48.858;8.252;2023-04-15T17:48:52;7.68;;;2.00;;
46597;SDS011;32318;48.858;8.252;2023-04-15T17:56:53;10.98;;;3.15;;
46597;SDS011;32318;48.858;8.252;2023-04-15T18:04:53;3.38;;;1.90;;
46597;SDS011;32318;48.858;8.252;2023-04-15T18:12:53;3.30;;;1.90;;
46597;SDS011;32318;48.858;8.252;2023-04-15T18:20:54;86.28;;;21.77;;
46597;SDS011;32318;48.858;8.252;2023-04-15T18:28:55;23.92;;;10.23;;
46597;SDS011;32318;48.858;8.252;2023-04-15T18:36:57;17.15;;;7.20;;
46597;SDS011;32318;48.858;8.252;2023-04-15T18:45:03;8.27;;;4.10;;
46597;SDS011;32318;48.858;8.252;2023-04-15T18:53:04;11.50;;;5.18;;
46597;SDS011;32318;48.858;8.252;2023-04-15T19:01:05;26.48;;;8.68;;
46597;SDS011;32318;48.858;8.252;2023-04-15T19:09:05;18.73;;;6.57;;
46597;SDS011;32318;48.858;8.252;2023-04-15T19:17:05;25.48;;;7.30;;
46597;SDS011;32318;48.858;8.252;2023-04-15T19:25:05;10.43;;;4.47;;
46597;SDS011;32318;48.858;8.252;2023-04-15T19:33:06;11.13;;;4.53;;
46597;SDS011;32318;48.858;8.252;2023-04-15T19:41:08;8.65;;;4.15;;
46597;SDS011;32318;48.858;8.252;2023-04-15T19:49:15;7.85;;;4.13;;
46597;SDS011;32318;48.858;8.252;2023-04-15T19:57:18;5.10;;;3.55;;
46597;SDS011;32318;48.858;8.252;2023-04-15T20:05:18;8.63;;;3.97;;
46597;SDS011;32318;48.858;8.252;2023-04-15T20:13:24;12.03;;;4.70;;
46597;SDS011;32318;48.858;8.252;2023-04-15T20:21:25;7.90;;;5.30;;
46597;SDS011;32318;48.858;8.252;2023-04-15T20:29:26;8.27;;;4.50;;
46597;SDS011;32318;48.858;8.252;2023-04-15T20:37:27;11.38;;;6.50;;
46597;SDS011;32318;48.858;8.252;2023-04-15T20:45:28;11.93;;;6.80;;
46597;SDS011;32318;48.858;8.252;2023-04-15T20:53:29;9.05;;;5.25;;
46597;SDS011;32318;48.858;8.252;2023-04-15T21:01:48;13.43;;;6.55;;
46597;SDS011;32318;48.858;8.252;2023-04-15T21:09:48;15.75;;;8.13;;
46597;SDS011;32318;48.858;8.252;2023-04-15T21:17:48;12.50;;;7.80;;
46597;SDS011;32318;48.858;8.252;2023-04-15T21:25:48;11.30;;;6.95;;
46597;SDS011;32318;48.858;8.252;2023-04-15T21:33:49;12.27;;;7.00;;
46597;SDS011;32318;48.858;8.252;2023-04-15T21:41:49;29.98;;;12.10;;
46597;SDS011;32318;48.858;8.252;2023-04-15T21:49:49;59.28;;;20.75;;
46597;SDS011;32318;48.858;8.252;2023-04-15T21:57:50;49.70;;;20.52;;
46597;SDS011;32318;48.858;8.252;2023-04-15T22:05:50;19.40;;;9.60;;
46597;SDS011;32318;48.858;8.252;2023-04-15T22:13:51;19.48;;;11.13;;
46597;SDS011;32318;48.858;8.252;2023-04-15T22:21:52;22.25;;;10.57;;
46597;SDS011;32318;48.858;8.252;2023-04-15T22:29:52;22.73;;;11.57;;
46597;SDS011;32318;48.858;8.252;2023-04-15T22:37:53;28.60;;;13.10;;
46597;SDS011;32318;48.858;8.252;2023-04-15T22:45:53;20.25;;;12.13;;
46597;SDS011;32318;48.858;8.252;2023-04-15T22:53:54;22.52;;;12.38;;
46597;SDS011;32318;48.858;8.252;2023-04-15T23:01:55;20.95;;;12.18;;
46597;SDS011;32318;48.858;8.252;2023-04-15T23:09:56;24.20;;;12.73;;
46597;SDS011;32318;48.858;8.252;2023-04-15T23:17:59;21.15;;;12.68;;
46597;SDS011;32318;48.858;8.252;2023-04-15T23:26:00;23.60;;;11.95;;
46597;SDS011;32318;48.858;8.252;2023-04-15T23:43:00;22.70;;;13.48;;
46597;SDS011;32318;48.858;8.252;2023-04-15T23:51:00;27.98;;;14.98;;
46597;SDS011;32318;48.858;8.252;2023-04-15T23:59:01;23.23;;;13.50;;
